sensor_id;sensor_type;location;lat;lon;timestamp;P1;durP1;ratioP1;P2;durP2;ratioP2
78820;SDS011;68171;13.882;99.692;2023-11-22T00:01:00;26.38;;;18.15;;
78820;SDS011;68171;13.882;99.692;2023-11-22T00:02:06;26.70;;;18.55;;
78820;SDS011;68171;13.882;99.692;2023-11-22T00:03:15;24.45;;;18.00;;
78820;SDS011;68171;13.882;99.692;2023-11-22T00:04:20;26.50;;;18.90;;
78820;SDS011;68171;13.882;99.692;2023-11-22T00:05:27;23.10;;;18.48;;
78820;SDS011;68171;13.882;99.692;2023-11-22T00:06:32;29.30;;;19.02;;
78820;SDS011;68171;13.882;99.692;2023-11-22T00:07:39;23.92;;;18.77;;
78820;SDS011;68171;13.882;99.692;2023-11-22T00:08:45;23.92;;;18.15;;
78820;SDS011;68171;13.882;99.692;2023-11-22T00:09:52;28.20;;;19.45;;
78820;SDS011;68171;13.882;99.692;2023-11-22T00:10:57;25.20;;;19.10;;
78820;SDS011;68171;13.882;99.692;2023-11-22T00:12:03;28.63;;;19.02;;
78820;SDS011;68171;13.882;99.692;2023-11-22T00:13:10;31.00;;;19.50;;
78820;SDS011;68171;13.882;99.692;2023-11-22T00:14:17;27.92;;;19.48;;
78820;SDS011;68171;13.882;99.692;2023-11-22T00:15:24;28.85;;;19.25;;
78820;SDS011;68171;13.882;99.692;2023-11-22T00:16:32;28.83;;;19.77;;
78820;SDS011;68171;13.882;99.692;2023-11-22T00:17:51;31.50;;;20.95;;
78820;SDS011;68171;13.882;99.692;2023-11-22T00:18:57;30.80;;;19.47;;
78820;SDS011;68171;13.882;99.692;2023-11-22T00:20:04;28.17;;;19.58;;
78820;SDS011;68171;13.882;99.692;2023-11-22T00:21:11;28.85;;;19.67;;
78820;SDS011;68171;13.882;99.692;2023-11-22T00:22:18;32.05;;;19.85;;
78820;SDS011;68171;13.882;99.692;2023-11-22T00:23:23;27.80;;;20.05;;
78820;SDS011;68171;13.882;99.692;2023-11-22T00:24:33;33.25;;;20.70;;
78820;SDS011;68171;13.882;99.692;2023-11-22T00:25:39;30.08;;;19.15;;
78820;SDS011;68171;13.882;99.692;2023-11-22T00:26:45;28.55;;;19.52;;
78820;SDS011;68171;13.882;99.692;2023-11-22T00:27:51;30.97;;;19.43;;
78820;SDS011;68171;13.882;99.692;2023-11-22T00:28:58;30.83;;;21.40;;
78820;SDS011;68171;13.882;99.692;2023-11-22T00:30:04;35.25;;;23.15;;
78820;SDS011;68171;13.882;99.692;2023-11-22T00:31:13;40.95;;;27.30;;
78820;SDS011;68171;13.882;99.692;2023-11-22T00:32:22;45.72;;;30.75;;
78820;SDS011;68171;13.882;99.692;2023-11-22T00:33:29;47.55;;;31.80;;
78820;SDS011;68171;13.882;99.692;2023-11-22T00:34:35;58.70;;;31.33;;
78820;SDS011;68171;13.882;99.692;2023-11-22T00:35:40;50.45;;;31.15;;
78820;SDS011;68171;13.882;99.692;2023-11-22T00:36:47;51.67;;;32.80;;
78820;SDS011;68171;13.882;99.692;2023-11-22T00:37:53;41.97;;;26.83;;
78820;SDS011;68171;13.882;99.692;2023-11-22T00:39:01;43.83;;;28.10;;
78820;SDS011;68171;13.882;99.692;2023-11-22T00:40:07;44.20;;;27.38;;
78820;SDS011;68171;13.882;99.692;2023-11-22T00:41:15;37.33;;;23.83;;
78820;SDS011;68171;13.882;99.692;2023-11-22T00:42:21;37.45;;;23.70;;
78820;SDS011;68171;13.882;99.692;2023-11-22T00:43:27;34.30;;;22.42;;
78820;SDS011;68171;13.882;99.692;2023-11-22T00:44:33;31.73;;;21.90;;
78820;SDS011;68171;13.882;99.692;2023-11-22T00:45:40;29.08;;;18.83;;
78820;SDS011;68171;13.882;99.692;2023-11-22T00:46:46;29.58;;;20.50;;
78820;SDS011;68171;13.882;99.692;2023-11-22T00:47:55;28.33;;;19.57;;
78820;SDS011;68171;13.882;99.692;2023-11-22T00:49:00;24.98;;;17.80;;
78820;SDS011;68171;13.882;99.692;2023-11-22T00:50:10;26.00;;;17.45;;
78820;SDS011;68171;13.882;99.692;2023-11-22T00:51:16;24.77;;;17.73;;
78820;SDS011;68171;13.882;99.692;2023-11-22T00:52:23;25.13;;;19.58;;
78820;SDS011;68171;13.882;99.692;2023-11-22T00:53:30;27.70;;;18.50;;
78820;SDS011;68171;13.882;99.692;2023-11-22T00:54:37;31.75;;;18.20;;
78820;SDS011;68171;13.882;99.692;2023-11-22T00:55:42;28.60;;;19.83;;
78820;SDS011;68171;13.882;99.692;2023-11-22T00:56:49;31.77;;;19.17;;
78820;SDS011;68171;13.882;99.692;2023-11-22T00:57:54;29.92;;;18.73;;
78820;SDS011;68171;13.882;99.692;2023-11-22T00:59:21;29.13;;;17.47;;
78820;SDS011;68171;13.882;99.692;2023-11-22T01:00:28;27.83;;;18.42;;
78820;SDS011;68171;13.882;99.692;2023-11-22T01:01:33;27.50;;;18.48;;
78820;SDS011;68171;13.882;99.692;2023-11-22T01:02:40;27.33;;;18.27;;
78820;SDS011;68171;13.882;99.692;2023-11-22T01:03:48;27.58;;;19.02;;
78820;SDS011;68171;13.882;99.692;2023-11-22T01:04:54;24.55;;;19.05;;
78820;SDS011;68171;13.882;99.692;2023-11-22T01:06:00;25.98;;;17.65;;
78820;SDS011;68171;13.882;99.692;2023-11-22T01:07:06;28.75;;;17.90;;
78820;SDS011;68171;13.882;99.692;2023-11-22T01:08:12;28.50;;;18.23;;
78820;SDS011;68171;13.882;99.692;2023-11-22T01:09:19;26.45;;;17.77;;
78820;SDS011;68171;13.882;99.692;2023-11-22T01:10:25;24.70;;;17.00;;
78820;SDS011;68171;13.882;99.692;2023-11-22T01:11:31;22.98;;;17.77;;
78820;SDS011;68171;13.882;99.692;2023-11-22T01:12:37;25.98;;;16.55;;
78820;SDS011;68171;13.882;99.692;2023-11-22T01:13:43;22.05;;;16.83;;
78820;SDS011;68171;13.882;99.692;2023-11-22T01:14:50;23.17;;;17.45;;
78820;SDS011;68171;13.882;99.692;2023-11-22T01:15:55;24.63;;;17.67;;
78820;SDS011;68171;13.882;99.692;2023-11-22T01:17:02;25.90;;;18.02;;
78820;SDS011;68171;13.882;99.692;2023-11-22T01:18:10;29.92;;;16.58;;
78820;SDS011;68171;13.882;99.692;2023-11-22T01:19:19;24.80;;;17.35;;
78820;SDS011;68171;13.882;99.692;2023-11-22T01:20:25;22.90;;;17.67;;
78820;SDS011;68171;13.882;99.692;2023-11-22T01:21:31;31.57;;;17.40;;
78820;SDS011;68171;13.882;99.692;2023-11-22T01:22:37;25.13;;;17.65;;
78820;SDS011;68171;13.882;99.692;2023-11-22T01:23:42;27.20;;;17.92;;
78820;SDS011;68171;13.882;99.692;2023-11-22T01:24:50;26.33;;;18.35;;
78820;SDS011;68171;13.882;99.692;2023-11-22T01:25:55;25.27;;;17.45;;
78820;SDS011;68171;13.882;99.692;2023-11-22T01:27:02;26.83;;;17.58;;
78820;SDS011;68171;13.882;99.692;2023-11-22T01:28:08;25.65;;;17.52;;
78820;SDS011;68171;13.882;99.692;2023-11-22T01:29:16;32.47;;;17.35;;
78820;SDS011;68171;13.882;99.692;2023-11-22T01:30:21;25.25;;;18.40;;
78820;SDS011;68171;13.882;99.692;2023-11-22T01:31:28;23.80;;;17.33;;
78820;SDS011;68171;13.882;99.692;2023-11-22T01:32:33;24.03;;;16.83;;
78820;SDS011;68171;13.882;99.692;2023-11-22T01:33:40;29.83;;;17.25;;
78820;SDS011;68171;13.882;99.692;2023-11-22T01:34:47;28.38;;;17.33;;
78820;SDS011;68171;13.882;99.692;2023-11-22T01:35:54;28.75;;;18.02;;
78820;SDS011;68171;13.882;99.692;2023-11-22T01:37:00;25.58;;;17.60;;
78820;SDS011;68171;13.882;99.692;2023-11-22T01:38:06;24.83;;;17.60;;
78820;SDS011;68171;13.882;99.692;2023-11-22T01:39:12;25.23;;;16.58;;
78820;SDS011;68171;13.882;99.692;2023-11-22T01:40:19;22.42;;;16.38;;
78820;SDS011;68171;13.882;99.692;2023-11-22T01:41:24;25.23;;;16.40;;
78820;SDS011;68171;13.882;99.692;2023-11-22T01:42:33;23.33;;;16.25;;
78820;SDS011;68171;13.882;99.692;2023-11-22T01:43:40;24.63;;;17.50;;
78820;SDS011;68171;13.882;99.692;2023-11-22T01:44:47;24.88;;;17.48;;
78820;SDS011;68171;13.882;99.692;2023-11-22T01:45:53;24.83;;;17.00;;
78820;SDS011;68171;13.882;99.692;2023-11-22T01:47:01;21.38;;;17.30;;
78820;SDS011;68171;13.882;99.692;2023-11-22T01:48:07;26.00;;;17.63;;
78820;SDS011;68171;13.882;99.692;2023-11-22T01:49:14;26.35;;;17.15;;
78820;SDS011;68171;13.882;99.692;2023-11-22T01:50:21;26.80;;;16.45;;
78820;SDS011;68171;13.882;99.692;2023-11-22T01:51:30;27.27;;;17.13;;
78820;SDS011;68171;13.882;99.692;2023-11-22T01:52:35;25.52;;;15.90;;
78820;SDS011;68171;13.882;99.692;2023-11-22T01:53:42;23.55;;;15.15;;
78820;SDS011;68171;13.882;99.692;2023-11-22T01:54:48;24.23;;;15.93;;
78820;SDS011;68171;13.882;99.692;2023-11-22T01:55:54;22.42;;;15.98;;
78820;SDS011;68171;13.882;99.692;2023-11-22T01:57:01;24.50;;;17.20;;
78820;SDS011;68171;13.882;99.692;2023-11-22T01:58:13;23.05;;;16.75;;
78820;SDS011;68171;13.882;99.692;2023-11-22T01:59:18;28.13;;;18.08;;
78820;SDS011;68171;13.882;99.692;2023-11-22T02:00:25;23.60;;;15.88;;
78820;SDS011;68171;13.882;99.692;2023-11-22T02:01:32;24.83;;;17.67;;
78820;SDS011;68171;13.882;99.692;2023-11-22T02:02:39;35.47;;;19.98;;
78820;SDS011;68171;13.882;99.692;2023-11-22T02:03:46;33.03;;;20.60;;
78820;SDS011;68171;13.882;99.692;2023-11-22T02:04:53;28.85;;;18.35;;
78820;SDS011;68171;13.882;99.692;2023-11-22T02:06:00;26.20;;;17.90;;
78820;SDS011;68171;13.882;99.692;2023-11-22T02:07:07;27.05;;;18.60;;
78820;SDS011;68171;13.882;99.692;2023-11-22T02:08:12;34.63;;;19.92;;
78820;SDS011;68171;13.882;99.692;2023-11-22T02:09:19;32.20;;;21.17;;
78820;SDS011;68171;13.882;99.692;2023-11-22T02:10:25;29.35;;;18.35;;
78820;SDS011;68171;13.882;99.692;2023-11-22T02:11:32;27.48;;;18.75;;
78820;SDS011;68171;13.882;99.692;2023-11-22T02:12:38;29.15;;;18.98;;
78820;SDS011;68171;13.882;99.692;2023-11-22T02:13:44;27.08;;;19.58;;
78820;SDS011;68171;13.882;99.692;2023-11-22T02:14:50;24.73;;;19.25;;
78820;SDS011;68171;13.882;99.692;2023-11-22T02:15:56;28.00;;;19.35;;
78820;SDS011;68171;13.882;99.692;2023-11-22T02:17:02;22.97;;;18.70;;
78820;SDS011;68171;13.882;99.692;2023-11-22T02:18:09;27.40;;;17.95;;
78820;SDS011;68171;13.882;99.692;2023-11-22T02:19:15;26.08;;;19.25;;
78820;SDS011;68171;13.882;99.692;2023-11-22T02:20:22;25.63;;;17.83;;
78820;SDS011;68171;13.882;99.692;2023-11-22T02:21:29;24.40;;;17.55;;
78820;SDS011;68171;13.882;99.692;2023-11-22T02:22:42;26.30;;;18.95;;
78820;SDS011;68171;13.882;99.692;2023-11-22T02:23:51;27.30;;;18.92;;
78820;SDS011;68171;13.882;99.692;2023-11-22T02:24:57;30.23;;;20.35;;
78820;SDS011;68171;13.882;99.692;2023-11-22T02:26:03;32.67;;;21.45;;
78820;SDS011;68171;13.882;99.692;2023-11-22T02:27:10;29.48;;;20.70;;
78820;SDS011;68171;13.882;99.692;2023-11-22T02:28:15;28.90;;;20.30;;
78820;SDS011;68171;13.882;99.692;2023-11-22T02:29:22;28.65;;;20.05;;
78820;SDS011;68171;13.882;99.692;2023-11-22T02:30:28;30.40;;;19.88;;
78820;SDS011;68171;13.882;99.692;2023-11-22T02:31:35;26.13;;;19.15;;
78820;SDS011;68171;13.882;99.692;2023-11-22T02:32:40;30.15;;;20.30;;
78820;SDS011;68171;13.882;99.692;2023-11-22T02:33:47;28.25;;;19.80;;
78820;SDS011;68171;13.882;99.692;2023-11-22T02:35:01;32.65;;;20.63;;
78820;SDS011;68171;13.882;99.692;2023-11-22T02:36:10;26.33;;;19.05;;
78820;SDS011;68171;13.882;99.692;2023-11-22T02:37:16;26.70;;;18.17;;
78820;SDS011;68171;13.882;99.692;2023-11-22T02:38:23;33.15;;;20.92;;
78820;SDS011;68171;13.882;99.692;2023-11-22T02:39:32;31.10;;;19.77;;
78820;SDS011;68171;13.882;99.692;2023-11-22T02:40:47;27.67;;;18.65;;
78820;SDS011;68171;13.882;99.692;2023-11-22T02:41:53;24.77;;;18.38;;
78820;SDS011;68171;13.882;99.692;2023-11-22T02:43:00;32.08;;;20.38;;
78820;SDS011;68171;13.882;99.692;2023-11-22T02:44:10;28.55;;;18.88;;
78820;SDS011;68171;13.882;99.692;2023-11-22T02:45:23;27.27;;;19.38;;
78820;SDS011;68171;13.882;99.692;2023-11-22T02:46:29;25.58;;;19.20;;
78820;SDS011;68171;13.882;99.692;2023-11-22T02:47:36;32.08;;;21.27;;
78820;SDS011;68171;13.882;99.692;2023-11-22T02:48:41;33.90;;;20.25;;
78820;SDS011;68171;13.882;99.692;2023-11-22T02:49:48;26.73;;;19.98;;
78820;SDS011;68171;13.882;99.692;2023-11-22T02:50:54;27.90;;;19.63;;
78820;SDS011;68171;13.882;99.692;2023-11-22T02:52:00;31.40;;;20.83;;
78820;SDS011;68171;13.882;99.692;2023-11-22T02:53:06;27.80;;;21.00;;
78820;SDS011;68171;13.882;99.692;2023-11-22T02:54:12;28.90;;;20.35;;
78820;SDS011;68171;13.882;99.692;2023-11-22T02:55:20;26.60;;;19.88;;
78820;SDS011;68171;13.882;99.692;2023-11-22T02:56:25;31.98;;;20.13;;
78820;SDS011;68171;13.882;99.692;2023-11-22T02:57:32;26.85;;;20.02;;
78820;SDS011;68171;13.882;99.692;2023-11-22T02:58:38;29.13;;;20.17;;
78820;SDS011;68171;13.882;99.692;2023-11-22T02:59:44;28.55;;;19.92;;
78820;SDS011;68171;13.882;99.692;2023-11-22T03:00:50;25.77;;;19.27;;
78820;SDS011;68171;13.882;99.692;2023-11-22T03:01:58;24.77;;;18.70;;
78820;SDS011;68171;13.882;99.692;2023-11-22T03:03:07;24.05;;;18.88;;
78820;SDS011;68171;13.882;99.692;2023-11-22T03:04:14;26.05;;;18.52;;
78820;SDS011;68171;13.882;99.692;2023-11-22T03:05:19;26.42;;;18.13;;
78820;SDS011;68171;13.882;99.692;2023-11-22T03:06:28;26.50;;;17.95;;
78820;SDS011;68171;13.882;99.692;2023-11-22T03:07:33;27.58;;;18.40;;
78820;SDS011;68171;13.882;99.692;2023-11-22T03:08:40;28.08;;;19.13;;
78820;SDS011;68171;13.882;99.692;2023-11-22T03:09:46;25.95;;;19.02;;
78820;SDS011;68171;13.882;99.692;2023-11-22T03:10:53;26.52;;;18.35;;
78820;SDS011;68171;13.882;99.692;2023-11-22T03:12:02;27.27;;;18.80;;
78820;SDS011;68171;13.882;99.692;2023-11-22T03:13:08;27.43;;;19.20;;
78820;SDS011;68171;13.882;99.692;2023-11-22T03:14:15;27.55;;;19.23;;
78820;SDS011;68171;13.882;99.692;2023-11-22T03:15:20;29.60;;;19.50;;
78820;SDS011;68171;13.882;99.692;2023-11-22T03:16:27;24.50;;;19.05;;
78820;SDS011;68171;13.882;99.692;2023-11-22T03:17:35;25.70;;;17.98;;
78820;SDS011;68171;13.882;99.692;2023-11-22T03:18:42;25.00;;;17.38;;
78820;SDS011;68171;13.882;99.692;2023-11-22T03:19:48;25.08;;;17.95;;
78820;SDS011;68171;13.882;99.692;2023-11-22T03:20:55;26.52;;;17.48;;
78820;SDS011;68171;13.882;99.692;2023-11-22T03:22:00;27.67;;;18.65;;
78820;SDS011;68171;13.882;99.692;2023-11-22T03:23:07;26.38;;;18.23;;
78820;SDS011;68171;13.882;99.692;2023-11-22T03:24:14;24.00;;;17.83;;
78820;SDS011;68171;13.882;99.692;2023-11-22T03:25:20;24.73;;;18.48;;
78820;SDS011;68171;13.882;99.692;2023-11-22T03:26:28;30.73;;;17.92;;
78820;SDS011;68171;13.882;99.692;2023-11-22T03:27:35;25.42;;;17.83;;
78820;SDS011;68171;13.882;99.692;2023-11-22T03:28:40;27.85;;;18.58;;
78820;SDS011;68171;13.882;99.692;2023-11-22T03:29:47;26.48;;;19.73;;
78820;SDS011;68171;13.882;99.692;2023-11-22T03:30:53;22.88;;;17.15;;
78820;SDS011;68171;13.882;99.692;2023-11-22T03:31:59;28.63;;;16.88;;
78820;SDS011;68171;13.882;99.692;2023-11-22T03:33:05;28.17;;;18.98;;
78820;SDS011;68171;13.882;99.692;2023-11-22T03:34:14;27.63;;;17.83;;
78820;SDS011;68171;13.882;99.692;2023-11-22T03:35:19;25.80;;;17.93;;
78820;SDS011;68171;13.882;99.692;2023-11-22T03:36:26;24.17;;;18.13;;
78820;SDS011;68171;13.882;99.692;2023-11-22T03:37:32;24.17;;;18.60;;
78820;SDS011;68171;13.882;99.692;2023-11-22T03:38:37;26.17;;;17.33;;
78820;SDS011;68171;13.882;99.692;2023-11-22T03:39:45;25.40;;;17.60;;
78820;SDS011;68171;13.882;99.692;2023-11-22T03:40:52;28.48;;;17.83;;
78820;SDS011;68171;13.882;99.692;2023-11-22T03:42:01;27.83;;;18.88;;
78820;SDS011;68171;13.882;99.692;2023-11-22T03:43:06;27.73;;;21.15;;
78820;SDS011;68171;13.882;99.692;2023-11-22T03:44:13;23.38;;;17.30;;
78820;SDS011;68171;13.882;99.692;2023-11-22T03:45:19;23.27;;;16.52;;
78820;SDS011;68171;13.882;99.692;2023-11-22T03:46:25;23.23;;;17.00;;
78820;SDS011;68171;13.882;99.692;2023-11-22T03:47:31;21.80;;;16.17;;
78820;SDS011;68171;13.882;99.692;2023-11-22T03:48:44;25.77;;;16.77;;
78820;SDS011;68171;13.882;99.692;2023-11-22T03:49:49;28.10;;;17.35;;
78820;SDS011;68171;13.882;99.692;2023-11-22T03:50:56;24.55;;;16.55;;
78820;SDS011;68171;13.882;99.692;2023-11-22T03:52:01;23.50;;;16.95;;
78820;SDS011;68171;13.882;99.692;2023-11-22T03:53:09;24.20;;;17.88;;
78820;SDS011;68171;13.882;99.692;2023-11-22T03:54:14;27.55;;;18.10;;
78820;SDS011;68171;13.882;99.692;2023-11-22T03:55:22;29.88;;;18.45;;
78820;SDS011;68171;13.882;99.692;2023-11-22T03:56:27;25.48;;;17.70;;
78820;SDS011;68171;13.882;99.692;2023-11-22T03:57:36;29.43;;;17.60;;
78820;SDS011;68171;13.882;99.692;2023-11-22T03:58:41;24.35;;;16.55;;
78820;SDS011;68171;13.882;99.692;2023-11-22T03:59:48;25.75;;;16.70;;
78820;SDS011;68171;13.882;99.692;2023-11-22T04:00:54;32.45;;;17.55;;
78820;SDS011;68171;13.882;99.692;2023-11-22T04:02:02;28.52;;;17.38;;
78820;SDS011;68171;13.882;99.692;2023-11-22T04:03:07;24.83;;;17.60;;
78820;SDS011;68171;13.882;99.692;2023-11-22T04:04:14;28.45;;;17.60;;
78820;SDS011;68171;13.882;99.692;2023-11-22T04:05:22;22.38;;;16.45;;
78820;SDS011;68171;13.882;99.692;2023-11-22T04:06:29;24.30;;;16.63;;
78820;SDS011;68171;13.882;99.692;2023-11-22T04:07:37;23.60;;;16.75;;
78820;SDS011;68171;13.882;99.692;2023-11-22T04:08:43;20.67;;;15.03;;
78820;SDS011;68171;13.882;99.692;2023-11-22T04:09:49;21.38;;;15.68;;
78820;SDS011;68171;13.882;99.692;2023-11-22T04:10:56;23.55;;;15.93;;
78820;SDS011;68171;13.882;99.692;2023-11-22T04:12:01;25.88;;;15.65;;
78820;SDS011;68171;13.882;99.692;2023-11-22T04:13:11;24.20;;;16.27;;
78820;SDS011;68171;13.882;99.692;2023-11-22T04:14:16;23.10;;;16.13;;
78820;SDS011;68171;13.882;99.692;2023-11-22T04:15:25;28.13;;;16.58;;
78820;SDS011;68171;13.882;99.692;2023-11-22T04:16:33;26.73;;;16.92;;
78820;SDS011;68171;13.882;99.692;2023-11-22T04:17:42;24.00;;;16.50;;
78820;SDS011;68171;13.882;99.692;2023-11-22T04:18:48;24.15;;;15.18;;
78820;SDS011;68171;13.882;99.692;2023-11-22T04:19:55;25.90;;;15.53;;
78820;SDS011;68171;13.882;99.692;2023-11-22T04:21:00;23.20;;;15.52;;
78820;SDS011;68171;13.882;99.692;2023-11-22T04:22:08;25.00;;;15.52;;
78820;SDS011;68171;13.882;99.692;2023-11-22T04:23:14;28.13;;;16.48;;
78820;SDS011;68171;13.882;99.692;2023-11-22T04:24:20;23.55;;;15.48;;
78820;SDS011;68171;13.882;99.692;2023-11-22T04:25:26;24.10;;;15.30;;
78820;SDS011;68171;13.882;99.692;2023-11-22T04:26:33;19.90;;;13.70;;
78820;SDS011;68171;13.882;99.692;2023-11-22T04:27:38;26.67;;;15.48;;
78820;SDS011;68171;13.882;99.692;2023-11-22T04:28:46;24.15;;;14.90;;
78820;SDS011;68171;13.882;99.692;2023-11-22T04:29:52;23.88;;;14.70;;
78820;SDS011;68171;13.882;99.692;2023-11-22T04:30:59;23.83;;;15.03;;
78820;SDS011;68171;13.882;99.692;2023-11-22T04:32:04;21.00;;;15.20;;
78820;SDS011;68171;13.882;99.692;2023-11-22T04:33:12;20.00;;;14.82;;
78820;SDS011;68171;13.882;99.692;2023-11-22T04:34:17;21.17;;;14.75;;
78820;SDS011;68171;13.882;99.692;2023-11-22T04:35:24;18.98;;;14.85;;
78820;SDS011;68171;13.882;99.692;2023-11-22T04:36:29;20.70;;;14.15;;
78820;SDS011;68171;13.882;99.692;2023-11-22T04:37:38;24.45;;;13.65;;
78820;SDS011;68171;13.882;99.692;2023-11-22T04:38:44;22.75;;;14.13;;
78820;SDS011;68171;13.882;99.692;2023-11-22T04:39:50;19.83;;;14.43;;
78820;SDS011;68171;13.882;99.692;2023-11-22T04:40:56;22.50;;;13.80;;
78820;SDS011;68171;13.882;99.692;2023-11-22T04:42:04;20.77;;;14.37;;
78820;SDS011;68171;13.882;99.692;2023-11-22T04:43:11;21.85;;;14.43;;
78820;SDS011;68171;13.882;99.692;2023-11-22T04:44:18;21.60;;;14.52;;
78820;SDS011;68171;13.882;99.692;2023-11-22T04:45:25;18.92;;;13.20;;
78820;SDS011;68171;13.882;99.692;2023-11-22T04:46:30;23.30;;;13.95;;
78820;SDS011;68171;13.882;99.692;2023-11-22T04:47:37;19.75;;;13.00;;
78820;SDS011;68171;13.882;99.692;2023-11-22T04:48:43;19.30;;;12.02;;
78820;SDS011;68171;13.882;99.692;2023-11-22T04:49:56;27.35;;;13.85;;
78820;SDS011;68171;13.882;99.692;2023-11-22T04:51:01;21.17;;;13.80;;
78820;SDS011;68171;13.882;99.692;2023-11-22T04:52:07;18.33;;;13.13;;
78820;SDS011;68171;13.882;99.692;2023-11-22T04:53:14;21.77;;;14.07;;
78820;SDS011;68171;13.882;99.692;2023-11-22T04:54:20;22.65;;;14.75;;
78820;SDS011;68171;13.882;99.692;2023-11-22T04:55:26;22.35;;;15.32;;
78820;SDS011;68171;13.882;99.692;2023-11-22T04:56:32;20.02;;;14.60;;
78820;SDS011;68171;13.882;99.692;2023-11-22T04:57:38;23.98;;;14.80;;
78820;SDS011;68171;13.882;99.692;2023-11-22T04:58:44;19.95;;;15.02;;
78820;SDS011;68171;13.882;99.692;2023-11-22T04:59:52;20.60;;;14.98;;
78820;SDS011;68171;13.882;99.692;2023-11-22T05:00:58;21.83;;;15.15;;
78820;SDS011;68171;13.882;99.692;2023-11-22T05:02:05;28.92;;;16.35;;
78820;SDS011;68171;13.882;99.692;2023-11-22T05:03:11;25.63;;;13.95;;
78820;SDS011;68171;13.882;99.692;2023-11-22T05:04:17;20.33;;;12.40;;
78820;SDS011;68171;13.882;99.692;2023-11-22T05:05:23;22.75;;;14.63;;
78820;SDS011;68171;13.882;99.692;2023-11-22T05:06:29;17.67;;;13.30;;
78820;SDS011;68171;13.882;99.692;2023-11-22T05:07:35;20.70;;;12.98;;
78820;SDS011;68171;13.882;99.692;2023-11-22T05:08:47;19.73;;;13.32;;
78820;SDS011;68171;13.882;99.692;2023-11-22T05:09:53;21.15;;;14.20;;
78820;SDS011;68171;13.882;99.692;2023-11-22T05:10:59;19.60;;;14.02;;
78820;SDS011;68171;13.882;99.692;2023-11-22T05:12:06;21.45;;;14.27;;
78820;SDS011;68171;13.882;99.692;2023-11-22T05:13:13;20.67;;;14.68;;
78820;SDS011;68171;13.882;99.692;2023-11-22T05:14:18;22.40;;;14.60;;
78820;SDS011;68171;13.882;99.692;2023-11-22T05:15:27;20.13;;;14.03;;
78820;SDS011;68171;13.882;99.692;2023-11-22T05:16:33;21.55;;;14.80;;
78820;SDS011;68171;13.882;99.692;2023-11-22T05:17:39;20.95;;;15.05;;
78820;SDS011;68171;13.882;99.692;2023-11-22T05:18:45;19.52;;;14.68;;
78820;SDS011;68171;13.882;99.692;2023-11-22T05:19:52;22.00;;;14.15;;
78820;SDS011;68171;13.882;99.692;2023-11-22T05:20:57;21.42;;;13.38;;
78820;SDS011;68171;13.882;99.692;2023-11-22T05:22:04;19.25;;;11.90;;
78820;SDS011;68171;13.882;99.692;2023-11-22T05:23:09;18.52;;;11.45;;
78820;SDS011;68171;13.882;99.692;2023-11-22T05:24:17;17.83;;;11.70;;
78820;SDS011;68171;13.882;99.692;2023-11-22T05:25:23;19.85;;;11.63;;
78820;SDS011;68171;13.882;99.692;2023-11-22T05:26:29;15.57;;;10.87;;
78820;SDS011;68171;13.882;99.692;2023-11-22T05:27:35;16.92;;;10.55;;
78820;SDS011;68171;13.882;99.692;2023-11-22T05:28:41;18.77;;;10.90;;
78820;SDS011;68171;13.882;99.692;2023-11-22T05:29:47;15.63;;;10.65;;
78820;SDS011;68171;13.882;99.692;2023-11-22T05:30:59;13.32;;;11.07;;
78820;SDS011;68171;13.882;99.692;2023-11-22T05:32:08;15.27;;;11.82;;
78820;SDS011;68171;13.882;99.692;2023-11-22T05:33:14;17.17;;;10.68;;
78820;SDS011;68171;13.882;99.692;2023-11-22T05:34:20;20.52;;;10.63;;
78820;SDS011;68171;13.882;99.692;2023-11-22T05:35:27;14.40;;;10.43;;
78820;SDS011;68171;13.882;99.692;2023-11-22T05:36:32;15.27;;;10.07;;
78820;SDS011;68171;13.882;99.692;2023-11-22T05:37:39;14.53;;;10.33;;
78820;SDS011;68171;13.882;99.692;2023-11-22T05:38:48;14.65;;;9.85;;
78820;SDS011;68171;13.882;99.692;2023-11-22T05:39:54;15.68;;;9.70;;
78820;SDS011;68171;13.882;99.692;2023-11-22T05:41:00;15.02;;;9.38;;
78820;SDS011;68171;13.882;99.692;2023-11-22T05:42:07;16.13;;;10.52;;
78820;SDS011;68171;13.882;99.692;2023-11-22T05:43:12;16.13;;;9.90;;
78820;SDS011;68171;13.882;99.692;2023-11-22T05:44:19;15.45;;;10.20;;
78820;SDS011;68171;13.882;99.692;2023-11-22T05:45:24;18.50;;;10.07;;
78820;SDS011;68171;13.882;99.692;2023-11-22T05:46:33;21.83;;;10.43;;
78820;SDS011;68171;13.882;99.692;2023-11-22T05:47:42;17.83;;;10.60;;
78820;SDS011;68171;13.882;99.692;2023-11-22T05:48:49;17.73;;;9.67;;
78820;SDS011;68171;13.882;99.692;2023-11-22T05:49:54;15.40;;;9.68;;
78820;SDS011;68171;13.882;99.692;2023-11-22T05:51:01;18.00;;;9.90;;
78820;SDS011;68171;13.882;99.692;2023-11-22T05:52:07;14.63;;;9.30;;
78820;SDS011;68171;13.882;99.692;2023-11-22T05:53:16;13.10;;;9.15;;
78820;SDS011;68171;13.882;99.692;2023-11-22T05:54:22;16.50;;;9.68;;
78820;SDS011;68171;13.882;99.692;2023-11-22T05:55:29;16.20;;;9.20;;
78820;SDS011;68171;13.882;99.692;2023-11-22T05:56:35;13.27;;;9.32;;
78820;SDS011;68171;13.882;99.692;2023-11-22T05:57:42;14.15;;;9.05;;
78820;SDS011;68171;13.882;99.692;2023-11-22T05:58:47;12.63;;;8.85;;
78820;SDS011;68171;13.882;99.692;2023-11-22T05:59:54;12.80;;;8.50;;
78820;SDS011;68171;13.882;99.692;2023-11-22T06:01:02;14.68;;;9.18;;
78820;SDS011;68171;13.882;99.692;2023-11-22T06:02:11;13.30;;;8.73;;
78820;SDS011;68171;13.882;99.692;2023-11-22T06:03:16;15.02;;;9.02;;
78820;SDS011;68171;13.882;99.692;2023-11-22T06:04:23;14.80;;;8.40;;
78820;SDS011;68171;13.882;99.692;2023-11-22T06:05:28;16.40;;;8.98;;
78820;SDS011;68171;13.882;99.692;2023-11-22T06:06:35;16.30;;;8.93;;
78820;SDS011;68171;13.882;99.692;2023-11-22T06:07:41;13.38;;;8.80;;
78820;SDS011;68171;13.882;99.692;2023-11-22T06:08:47;13.90;;;7.70;;
78820;SDS011;68171;13.882;99.692;2023-11-22T06:09:53;16.13;;;9.00;;
78820;SDS011;68171;13.882;99.692;2023-11-22T06:11:00;15.80;;;8.17;;
78820;SDS011;68171;13.882;99.692;2023-11-22T06:12:07;18.80;;;9.10;;
78820;SDS011;68171;13.882;99.692;2023-11-22T06:13:14;11.90;;;8.10;;
78820;SDS011;68171;13.882;99.692;2023-11-22T06:14:19;12.55;;;7.97;;
78820;SDS011;68171;13.882;99.692;2023-11-22T06:15:26;15.90;;;7.90;;
78820;SDS011;68171;13.882;99.692;2023-11-22T06:16:34;13.77;;;8.27;;
78820;SDS011;68171;13.882;99.692;2023-11-22T06:17:42;14.65;;;8.57;;
78820;SDS011;68171;13.882;99.692;2023-11-22T06:18:48;12.77;;;8.05;;
78820;SDS011;68171;13.882;99.692;2023-11-22T06:19:54;12.35;;;8.18;;
78820;SDS011;68171;13.882;99.692;2023-11-22T06:21:00;13.25;;;7.97;;
78820;SDS011;68171;13.882;99.692;2023-11-22T06:22:07;13.43;;;7.77;;
78820;SDS011;68171;13.882;99.692;2023-11-22T06:23:12;11.35;;;8.00;;
78820;SDS011;68171;13.882;99.692;2023-11-22T06:24:19;14.73;;;7.88;;
78820;SDS011;68171;13.882;99.692;2023-11-22T06:25:25;11.95;;;7.63;;
78820;SDS011;68171;13.882;99.692;2023-11-22T06:26:32;15.63;;;8.20;;